LEZG Airport Information

Runway Information
Runway 12L Length 9843 ft width 148 ft
Elevation 823 ft Threshold 0 ft Heading 120
Runway 30R Length 9843 ft Width 148 ft
Elevation 834 ft Threshold 0 ft Heading 300
Runway 12R Length 12198 ft width 148 ft
Elevation 834 ft Threshold 0 ft Heading 120
Runway 30L Length 12198 ft Width 148 ft
Elevation 863 ft Threshold 0 ft Heading 300
Airport Frequencies
Type APP Name APP Frequency 119.3 MHZ
Type GND Name GND Frequency 118.1 MHZ
Type TWR Name TWR Frequency 118.1 MHZ
Airport Navaids
Type VOR-DME Name Zaragoza Frequency 113000 KHZ
Type NDB Name Zaragoza Frequency 389 KHZ
Type TACAN Name Zaragoza Frequency 133700 KHZ
Type NDB Name Zaragoza Frequency 348 KHZ
Airport Weather Information & NOTAM
ADDS - METARS form results

(0420 UTC 14 April 2021)
Data provider http://aviationweather.gov/metar/data/
 
METAR text: LEZG 140400Z 33003KT 290V010 9999 OVC075 12/09 Q1020
Conditions at: LEZG (ZARAGOZA (MIL/CI, ES) observed 0400 UTC 14 April 2021
Temperature: 12.0°C (54°F)
Dewpoint: 9.0°C (48°F) [RH = 82%]
Pressure (altimeter): 30.12 inches Hg (1020.0 mb)
Winds: from the NNW (330 degrees) at 3 MPH (3 knots; 1.5 m/s)
Visibility: 6 or more miles (10+ km)
Ceiling: 7500 feet AGL
Clouds: overcast cloud deck at 7500 feet AGL
Weather: no significant weather observed at this time

METAR text: LEZG 140330Z 00000KT 9999 OVC075 12/09 Q1020
Conditions at: LEZG (ZARAGOZA (MIL/CI, ES) observed 0330 UTC 14 April 2021
Temperature: 12.0°C (54°F)
Dewpoint: 9.0°C (48°F) [RH = 82%]
Pressure (altimeter): 30.12 inches Hg (1020.0 mb)
Winds: calm
Visibility: 6 or more miles (10+ km)
Ceiling: 7500 feet AGL
Clouds: overcast cloud deck at 7500 feet AGL
Weather: no significant weather observed at this time

Forecast for: LEZG (ZARAGOZA (MIL/CI, ES)
Text: TAF LEZG 132300Z 1400/1424 VRB04KT 9999 BKN060 TX17/1414Z TN10/1406Z
Forecast period: 0000 UTC 14 April 2021 to 0000 UTC 15 April 2021
Forecast type: FROM: standard forecast or significant change
Winds: variable direction winds at 5 MPH (4 knots; 2.1 m/s)
Visibility: 6 or more miles (10+ km)
Ceiling: 6000 feet AGL
Clouds: broken clouds at 6000 feet AGL
Weather: no significant weather forecast for this period
Text: TEMPO 1400/1412 12010KT
Forecast period: 0000 to 1200 UTC 14 April 2021
Forecast type: TEMPORARY: The following changes expected for less than half the time period
Winds: from the ESE (120 degrees) at 12 MPH (10 knots; 5.1 m/s)
Visibility: missing
Ceiling: unknown
Clouds: missing
Weather: no significant weather forecast for this period